sim
Sign-in with your pilot id or email,
or register
Callsign
Passwort

Schedule Details

Flight Number: DLH2041
Departure: Berlin Tegel Airport (EDDT) at 15:00
Arrival: Munich Airport (EDDM) at 16:10
Route: Lufthansa Passenger Schedule. Enter filed route here before submitting Pirep.

Weather Information
Getting current METAR information for EDDT 010050Z 08001KT 2500 BCFG BR NSC 09/09 Q1011
Getting current METAR information for EDDM 010050Z VRB02KT 1500 0500NE R08L/0600D R08R/0600N BCFG NSC 05/04 Q1011 BECMG 0600 FG

Schedule Frequency

Route Map